createdAt,value
2023-01-12T00:02:17.011Z,6.54
2023-01-12T00:04:45.650Z,6.37
2023-01-12T00:07:16.008Z,6.36
2023-01-12T00:09:44.143Z,6.18
2023-01-12T00:12:13.167Z,6.09
2023-01-12T00:14:42.812Z,5.99
2023-01-12T00:17:12.093Z,5.97
2023-01-12T00:19:40.554Z,5.90
2023-01-12T00:22:16.601Z,5.81
2023-01-12T00:24:46.287Z,5.65
2023-01-12T00:27:16.014Z,5.66
2023-01-12T00:29:45.966Z,5.69
2023-01-12T00:32:16.583Z,5.77
2023-01-12T00:34:45.227Z,5.75
2023-01-12T00:37:13.893Z,5.75
2023-01-12T00:39:45.808Z,5.78
2023-01-12T00:42:42.536Z,5.63
2023-01-12T00:45:22.725Z,5.65
2023-01-12T00:47:51.234Z,5.61
2023-01-12T00:50:19.941Z,5.64
2023-01-12T00:52:48.326Z,5.67
2023-01-12T00:55:16.728Z,5.67
2023-01-12T00:57:44.999Z,5.50
2023-01-12T01:00:16.107Z,5.43
2023-01-12T01:02:44.835Z,5.44
2023-01-12T01:05:13.559Z,5.27
2023-01-12T01:07:42.308Z,5.23
2023-01-12T01:10:12.429Z,5.19
2023-01-12T01:12:40.836Z,5.10
2023-01-12T01:15:10.070Z,5.06
2023-01-12T01:17:39.969Z,4.91
2023-01-12T01:20:09.101Z,4.81
2023-01-12T01:22:37.491Z,4.79
2023-01-12T01:25:06.613Z,4.82
2023-01-12T01:27:35.170Z,4.82
2023-01-12T01:30:03.915Z,4.88
2023-01-12T01:32:32.659Z,4.96
2023-01-12T01:35:02.816Z,4.92
2023-01-12T01:37:31.634Z,4.99
2023-01-12T01:39:59.981Z,5.00
2023-01-12T01:42:30.699Z,5.00
2023-01-12T01:44:59.917Z,4.86
2023-01-12T01:47:36.669Z,4.65
2023-01-12T01:50:12.082Z,4.68
2023-01-12T01:52:43.151Z,4.69
2023-01-12T01:55:14.649Z,4.56
2023-01-12T01:57:45.008Z,4.69
2023-01-12T02:00:14.100Z,4.78
2023-01-12T02:02:43.277Z,4.62
2023-01-12T02:05:13.378Z,4.59
2023-01-12T02:07:42.590Z,4.70
2023-01-12T02:10:12.598Z,4.62
2023-01-12T02:12:59.506Z,4.61
2023-01-12T02:15:47.794Z,4.68
2023-01-12T02:18:21.819Z,4.76
2023-01-12T02:21:03.748Z,4.87
2023-01-12T02:24:02.130Z,4.97
2023-01-12T02:27:09.553Z,5.02
2023-01-12T02:30:05.072Z,5.06
2023-01-12T02:32:40.575Z,5.11
2023-01-12T02:35:17.051Z,4.98
2023-01-12T02:37:50.666Z,4.76
2023-01-12T02:40:25.141Z,4.58
2023-01-12T02:42:58.876Z,4.48
2023-01-12T02:45:38.446Z,4.40
2023-01-12T02:48:11.711Z,4.28
2023-01-12T02:50:45.006Z,4.24
2023-01-12T02:53:19.879Z,4.16
2023-01-12T02:55:48.622Z,4.25
2023-01-12T02:58:19.279Z,4.30
2023-01-12T03:00:50.017Z,4.30
2023-01-12T03:03:20.911Z,4.33
2023-01-12T03:05:51.831Z,4.28
2023-01-12T03:08:25.829Z,4.31
2023-01-12T03:11:12.336Z,4.29
2023-01-12T03:13:45.506Z,4.31
2023-01-12T03:16:16.104Z,4.24
2023-01-12T03:19:10.759Z,4.36
2023-01-12T03:21:41.894Z,4.37
2023-01-12T03:24:13.533Z,4.36
2023-01-12T03:26:45.751Z,4.37
2023-01-12T03:29:17.619Z,4.34
2023-01-12T03:31:46.770Z,4.30
2023-01-12T03:34:17.181Z,4.25
2023-01-12T03:36:49.690Z,4.34
2023-01-12T03:39:23.324Z,4.41
2023-01-12T03:41:58.841Z,4.46
2023-01-12T03:44:32.047Z,4.47
2023-01-12T03:47:13.795Z,4.39
2023-01-12T03:49:46.405Z,4.21
2023-01-12T03:52:16.124Z,4.10
2023-01-12T03:54:45.332Z,4.05
2023-01-12T03:57:15.497Z,3.92
2023-01-12T03:59:44.507Z,3.97
2023-01-12T04:02:14.632Z,4.00
2023-01-12T04:04:45.671Z,3.88
2023-01-12T04:07:17.281Z,3.92
2023-01-12T04:09:45.727Z,3.94
2023-01-12T04:12:15.242Z,3.95
2023-01-12T04:14:47.934Z,4.01
2023-01-12T04:17:17.406Z,4.01
2023-01-12T04:19:48.803Z,3.96
2023-01-12T04:22:34.776Z,3.99
2023-01-12T04:25:03.338Z,4.05
2023-01-12T04:27:31.702Z,4.01
2023-01-12T04:30:00.106Z,3.97
2023-01-12T04:32:28.747Z,3.91
2023-01-12T04:34:58.674Z,3.93
2023-01-12T04:37:27.479Z,3.98
2023-01-12T04:39:56.508Z,3.99
2023-01-12T04:42:48.224Z,3.96
2023-01-12T04:45:16.985Z,3.88
2023-01-12T04:47:46.210Z,3.86
2023-01-12T04:50:25.342Z,3.93
2023-01-12T04:52:54.354Z,4.01
2023-01-12T04:55:22.900Z,4.09
2023-01-12T04:57:51.658Z,4.17
2023-01-12T05:00:21.678Z,4.18
2023-01-12T05:02:50.852Z,4.14
2023-01-12T05:05:19.439Z,4.09
2023-01-12T05:08:03.703Z,4.09
2023-01-12T05:10:32.439Z,3.98
2023-01-12T05:13:16.763Z,3.84
2023-01-12T05:15:45.596Z,3.70
2023-01-12T05:18:15.001Z,3.70
2023-01-12T05:20:44.069Z,3.71
2023-01-12T05:23:14.173Z,3.83
2023-01-12T05:25:42.723Z,3.85
2023-01-12T05:28:11.438Z,3.89
2023-01-12T05:30:40.240Z,3.94
2023-01-12T05:33:16.033Z,3.96
2023-01-12T05:35:45.024Z,3.89
2023-01-12T05:38:15.501Z,3.90
2023-01-12T05:40:44.370Z,3.80
2023-01-12T05:43:32.045Z,3.85
2023-01-12T05:46:04.624Z,3.73
2023-01-12T05:48:33.837Z,3.75
2023-01-12T05:51:03.258Z,3.78
2023-01-12T05:53:35.095Z,3.69
2023-01-12T05:56:08.113Z,3.59
2023-01-12T05:58:36.767Z,3.51
2023-01-12T06:01:09.065Z,3.39
2023-01-12T06:03:38.469Z,3.20
2023-01-12T06:06:08.265Z,3.17
2023-01-12T06:08:38.434Z,3.19
2023-01-12T06:11:06.943Z,3.21
2023-01-12T06:13:53.044Z,3.23
2023-01-12T06:16:21.914Z,3.23
2023-01-12T06:18:50.907Z,3.23
2023-01-12T06:21:19.671Z,3.34
2023-01-12T06:23:49.787Z,3.34
2023-01-12T06:26:21.445Z,3.43
2023-01-12T06:28:50.360Z,3.53
2023-01-12T06:31:19.648Z,3.51
2023-01-12T06:33:48.518Z,3.46
2023-01-12T06:36:17.632Z,3.25
2023-01-12T06:38:46.901Z,3.25
2023-01-12T06:41:31.342Z,3.15
2023-01-12T06:44:00.421Z,3.14
2023-01-12T06:46:29.228Z,3.11
2023-01-12T06:48:58.583Z,3.16
2023-01-12T06:51:27.984Z,3.22
2023-01-12T06:53:56.728Z,3.23
2023-01-12T06:56:27.273Z,3.20
2023-01-12T06:58:57.101Z,3.24
2023-01-12T07:01:27.406Z,3.31
2023-01-12T07:03:56.626Z,3.29
2023-01-12T07:06:25.928Z,3.21
2023-01-12T07:08:54.819Z,3.21
2023-01-12T07:11:26.841Z,3.11
2023-01-12T07:13:58.634Z,3.05
2023-01-12T07:16:27.640Z,3.03
2023-01-12T07:18:57.014Z,3.02
2023-01-12T07:21:25.935Z,3.11
2023-01-12T07:23:55.119Z,3.17
2023-01-12T07:26:24.552Z,3.21
2023-01-12T07:28:53.424Z,3.15
2023-01-12T07:31:24.166Z,3.20
2023-01-12T07:33:56.232Z,3.20
2023-01-12T07:36:25.955Z,3.26
2023-01-12T07:38:58.106Z,3.37
2023-01-12T07:41:44.917Z,3.35
2023-01-12T07:44:15.114Z,3.39
2023-01-12T07:46:45.828Z,3.41
2023-01-12T07:49:15.147Z,3.42
2023-01-12T07:51:43.973Z,3.43
2023-01-12T07:54:12.839Z,3.45
2023-01-12T07:56:44.388Z,3.49
2023-01-12T07:59:16.355Z,3.51
2023-01-12T08:01:47.060Z,3.54
2023-01-12T08:04:16.108Z,3.64
2023-01-12T08:06:45.171Z,3.75
2023-01-12T08:09:13.896Z,3.81
2023-01-12T08:11:43.189Z,3.86
2023-01-12T08:14:22.942Z,3.97
2023-01-12T08:16:54.769Z,4.00
2023-01-12T08:19:25.630Z,4.01
2023-01-12T08:21:59.550Z,3.98
2023-01-12T08:24:30.996Z,3.99
2023-01-12T08:27:02.203Z,4.08
2023-01-12T08:29:34.800Z,4.14
2023-01-12T08:34:41.341Z,4.15
2023-01-12T08:37:12.378Z,4.20
2023-01-12T08:39:41.634Z,4.28
2023-01-12T08:42:13.022Z,4.30
2023-01-12T08:44:45.122Z,4.36
2023-01-12T08:47:20.823Z,4.42
2023-01-12T08:49:49.746Z,4.47
2023-01-12T08:52:19.119Z,4.55
2023-01-12T08:54:48.395Z,4.64
2023-01-12T08:57:19.244Z,4.75
2023-01-12T08:59:48.170Z,4.81
2023-01-12T09:02:18.572Z,4.88
2023-01-12T09:04:46.885Z,4.94
2023-01-12T09:07:17.226Z,5.02
2023-01-12T09:09:46.178Z,5.06
2023-01-12T09:12:14.785Z,5.14
2023-01-12T09:14:43.976Z,5.21
2023-01-12T09:17:12.841Z,5.27
2023-01-12T09:19:45.767Z,5.30
2023-01-12T09:22:15.886Z,5.35
2023-01-12T09:24:45.467Z,5.41
2023-01-12T09:27:14.460Z,5.44
2023-01-12T09:29:43.812Z,5.48
2023-01-12T09:32:12.541Z,5.54
2023-01-12T09:34:43.324Z,5.59
2023-01-12T09:37:12.295Z,5.62
2023-01-12T09:39:41.271Z,5.74
2023-01-12T09:42:35.253Z,5.81
2023-01-12T09:45:23.185Z,5.90
2023-01-12T09:47:53.933Z,5.99
2023-01-12T09:50:26.105Z,6.02
2023-01-12T09:52:57.532Z,6.10
2023-01-12T09:55:27.510Z,6.12
2023-01-12T09:58:20.049Z,6.14
2023-01-12T10:00:51.624Z,6.22
2023-01-12T10:03:27.446Z,6.20
2023-01-12T10:06:00.539Z,6.28
2023-01-12T10:08:32.507Z,6.35
2023-01-12T10:11:08.842Z,6.41
2023-01-12T10:14:21.597Z,6.47
2023-01-12T10:17:08.879Z,6.56
2023-01-12T10:19:44.681Z,6.57
2023-01-12T10:22:37.431Z,6.70
2023-01-12T10:25:25.137Z,6.76
2023-01-12T10:27:54.993Z,6.82
2023-01-12T10:30:27.605Z,6.86
2023-01-12T10:32:55.991Z,6.96
2023-01-12T10:35:26.485Z,7.05
2023-01-12T10:37:57.764Z,7.12
2023-01-12T10:40:29.651Z,7.18
2023-01-12T10:43:24.063Z,7.22
2023-01-12T10:46:07.412Z,7.31
2023-01-12T10:48:36.333Z,7.36
2023-01-12T10:51:07.761Z,7.42
2023-01-12T10:53:42.666Z,7.45
2023-01-12T10:56:16.062Z,7.52
2023-01-12T10:58:48.502Z,7.55
2023-01-12T11:01:17.578Z,7.53
2023-01-12T11:03:45.904Z,7.56
2023-01-12T11:06:24.674Z,7.60
2023-01-12T11:08:54.715Z,7.56
2023-01-12T11:11:30.805Z,7.69
2023-01-12T11:14:01.014Z,7.70
2023-01-12T11:16:33.949Z,7.76
2023-01-12T11:19:21.447Z,7.81
2023-01-12T11:21:52.443Z,7.77
2023-01-12T11:24:35.586Z,7.75
2023-01-12T11:27:09.964Z,7.79
2023-01-12T11:29:43.892Z,7.81
2023-01-12T11:32:18.312Z,7.88
2023-01-12T11:34:57.186Z,7.92
2023-01-12T11:37:25.656Z,7.94
2023-01-12T11:40:01.816Z,7.96
2023-01-12T11:42:49.103Z,7.99
2023-01-12T11:45:23.815Z,7.92
2023-01-12T11:47:54.496Z,7.92
2023-01-12T11:50:27.936Z,7.96
2023-01-12T11:52:57.067Z,7.97
2023-01-12T11:55:43.417Z,7.94
2023-01-12T11:58:19.351Z,8.00
2023-01-12T12:01:01.058Z,8.07
2023-01-12T12:03:50.445Z,8.01
2023-01-12T12:06:31.654Z,8.03
2023-01-12T12:09:09.113Z,8.07
2023-01-12T12:11:45.019Z,8.03
2023-01-12T12:14:28.963Z,7.99
2023-01-12T12:17:03.526Z,7.98
2023-01-12T12:19:36.674Z,8.04
2023-01-12T12:22:12.499Z,8.05
2023-01-12T12:24:56.794Z,8.11
2023-01-12T12:27:35.143Z,8.14
2023-01-12T12:30:25.018Z,8.08
2023-01-12T12:32:57.380Z,8.10
2023-01-12T12:35:41.326Z,8.14
2023-01-12T12:38:20.956Z,8.12
2023-01-12T12:41:16.396Z,8.20
2023-01-12T12:44:08.931Z,8.21
2023-01-12T12:46:43.023Z,8.22
2023-01-12T12:49:14.469Z,8.19
2023-01-12T12:51:43.392Z,8.23
2023-01-12T12:54:17.171Z,8.23
2023-01-12T12:56:46.070Z,8.22
2023-01-12T12:59:51.955Z,8.21
2023-01-12T13:02:41.691Z,8.17
2023-01-12T13:05:11.398Z,8.17
2023-01-12T13:07:45.444Z,8.17
2023-01-12T13:10:31.301Z,8.16
2023-01-12T13:13:05.893Z,8.15
2023-01-12T13:15:37.719Z,8.15
2023-01-12T13:18:10.954Z,8.10
2023-01-12T13:20:59.720Z,8.11
2023-01-12T13:24:27.825Z,8.03
2023-01-12T13:26:58.833Z,8.11
2023-01-12T13:29:44.430Z,8.10
2023-01-12T13:32:36.862Z,8.13
2023-01-12T13:35:24.479Z,8.14
2023-01-12T13:37:55.814Z,8.17
2023-01-12T13:40:28.948Z,8.16
2023-01-12T13:43:19.816Z,8.12
2023-01-12T13:45:53.607Z,8.04
2023-01-12T13:48:22.478Z,8.06
2023-01-12T13:50:54.832Z,8.09
2023-01-12T13:53:28.692Z,8.10
2023-01-12T13:55:59.439Z,8.13
2023-01-12T13:58:29.028Z,8.14
2023-01-12T14:00:59.180Z,8.17
2023-01-12T14:03:45.311Z,8.19
2023-01-12T14:06:21.046Z,8.17
2023-01-12T14:09:06.583Z,8.10
2023-01-12T14:11:48.608Z,8.06
2023-01-12T14:14:53.182Z,8.04
2023-01-12T14:17:43.328Z,8.00
2023-01-12T14:20:19.777Z,7.99
2023-01-12T14:22:49.615Z,8.03
2023-01-12T14:25:20.660Z,8.07
2023-01-12T14:27:53.192Z,8.09
2023-01-12T14:30:23.126Z,8.13
2023-01-12T14:32:51.747Z,8.13
2023-01-12T14:35:21.352Z,8.19
2023-01-12T14:37:53.185Z,8.19
2023-01-12T14:40:24.715Z,8.14
2023-01-12T14:43:11.805Z,8.12
2023-01-12T14:46:00.077Z,8.12
2023-01-12T14:48:30.455Z,8.06
2023-01-12T14:51:17.703Z,8.03
2023-01-12T14:53:48.982Z,7.97
2023-01-12T14:56:20.155Z,7.90
2023-01-12T14:58:49.069Z,7.90
2023-01-12T15:01:31.023Z,7.85
2023-01-12T15:03:59.705Z,7.74
2023-01-12T15:06:28.176Z,7.71
2023-01-12T15:09:01.308Z,7.67
2023-01-12T15:11:31.331Z,7.65
2023-01-12T15:14:00.861Z,7.66
2023-01-12T15:16:52.014Z,7.62
2023-01-12T15:19:37.707Z,7.61
2023-01-12T15:22:27.881Z,7.57
2023-01-12T15:25:26.758Z,7.55
2023-01-12T15:27:55.138Z,7.53
2023-01-12T15:30:23.418Z,7.49
2023-01-12T15:32:51.804Z,7.48
2023-01-12T15:35:23.820Z,7.49
2023-01-12T15:37:53.148Z,7.47
2023-01-12T15:40:23.428Z,7.47
2023-01-12T15:42:53.352Z,7.48
2023-01-12T15:45:34.615Z,7.49
2023-01-12T15:48:03.241Z,7.43
2023-01-12T15:50:31.859Z,7.44
2023-01-12T15:53:01.751Z,7.38
2023-01-12T15:55:35.896Z,7.41
2023-01-12T15:58:04.475Z,7.36
2023-01-12T16:00:33.063Z,7.32
2023-01-12T16:03:01.564Z,7.32
2023-01-12T16:05:30.436Z,7.30
2023-01-12T16:07:59.010Z,7.29
2023-01-12T16:10:30.287Z,7.27
2023-01-12T16:13:02.094Z,7.24
2023-01-12T16:15:31.642Z,7.23
2023-01-12T16:18:00.180Z,7.26
2023-01-12T16:20:28.631Z,7.24
2023-01-12T16:22:57.391Z,7.24
2023-01-12T16:25:26.157Z,7.23
2023-01-12T16:28:00.621Z,7.22
2023-01-12T16:30:28.820Z,7.19
2023-01-12T16:32:58.918Z,7.19
2023-01-12T16:35:27.006Z,7.20
2023-01-12T16:37:55.652Z,7.16
2023-01-12T16:40:23.844Z,7.13
2023-01-12T16:42:52.194Z,7.15
2023-01-12T16:45:21.891Z,7.17
2023-01-12T16:47:50.308Z,7.16
2023-01-12T16:50:18.961Z,7.15
2023-01-12T16:52:47.837Z,7.13
2023-01-12T16:55:16.556Z,7.13
2023-01-12T16:57:45.079Z,7.11
2023-01-12T17:00:14.203Z,7.08
2023-01-12T17:02:44.020Z,7.09
2023-01-12T17:05:12.365Z,7.09
2023-01-12T17:07:40.580Z,7.06
2023-01-12T17:10:09.696Z,7.08
2023-01-12T17:12:38.341Z,7.07
2023-01-12T17:15:24.544Z,7.06
2023-01-12T17:17:54.906Z,7.06
2023-01-12T17:20:23.273Z,7.05
2023-01-12T17:22:52.170Z,7.03
2023-01-12T17:25:20.297Z,7.00
2023-01-12T17:27:48.399Z,6.98
2023-01-12T17:30:17.013Z,7.00
2023-01-12T17:32:45.783Z,7.04
2023-01-12T17:35:15.479Z,7.05
2023-01-12T17:37:43.558Z,7.03
2023-01-12T17:40:12.864Z,7.03
2023-01-12T17:42:58.850Z,7.02
2023-01-12T17:45:27.183Z,7.00
2023-01-12T17:47:55.833Z,7.01
2023-01-12T17:50:25.485Z,7.02
2023-01-12T17:52:54.318Z,7.02
2023-01-12T17:55:22.953Z,7.02
2023-01-12T17:57:51.124Z,7.03
2023-01-12T18:00:20.264Z,7.02
2023-01-12T18:02:48.890Z,7.00
2023-01-12T18:05:17.099Z,6.99
2023-01-12T18:07:46.703Z,7.00
2023-01-12T18:10:14.996Z,6.95
2023-01-12T18:12:43.182Z,6.95
2023-01-12T18:15:12.434Z,6.96
2023-01-12T18:17:40.557Z,6.99
2023-01-12T18:20:09.367Z,7.00
2023-01-12T18:22:37.751Z,7.00
2023-01-12T18:25:08.247Z,7.04
2023-01-12T18:27:36.452Z,7.01
2023-01-12T18:30:05.365Z,7.03
2023-01-12T18:32:33.786Z,7.03
2023-01-12T18:35:04.489Z,7.01
2023-01-12T18:37:33.082Z,7.00
2023-01-12T18:40:01.627Z,7.02
2023-01-12T18:42:49.257Z,7.02
2023-01-12T18:45:17.835Z,7.00
2023-01-12T18:48:24.258Z,6.99
2023-01-12T18:51:11.770Z,6.95
2023-01-12T18:53:41.820Z,6.93
2023-01-12T18:56:10.390Z,6.89
2023-01-12T18:58:42.867Z,6.90
2023-01-12T19:01:12.859Z,6.90
2023-01-12T19:03:41.911Z,6.89
2023-01-12T19:06:22.640Z,6.85
2023-01-12T19:09:09.952Z,6.81
2023-01-12T19:11:39.141Z,6.80
2023-01-12T19:14:26.521Z,6.79
2023-01-12T19:17:12.872Z,6.79
2023-01-12T19:19:41.399Z,6.76
2023-01-12T19:22:27.508Z,6.73
2023-01-12T19:25:13.526Z,6.73
2023-01-12T19:27:59.999Z,6.73
2023-01-12T19:30:30.517Z,6.74
2023-01-12T19:32:59.630Z,6.68
2023-01-12T19:35:28.280Z,6.71
2023-01-12T19:37:56.760Z,6.69
2023-01-12T19:40:32.220Z,6.68
2023-01-12T19:43:13.739Z,6.64
2023-01-12T19:45:44.756Z,6.64
2023-01-12T19:48:15.758Z,6.63
2023-01-12T19:50:44.951Z,6.63
2023-01-12T19:53:14.982Z,6.67
2023-01-12T19:55:43.900Z,6.64
2023-01-12T19:58:12.550Z,6.61
2023-01-12T20:00:45.163Z,6.63
2023-01-12T20:03:14.584Z,6.66
2023-01-12T20:05:43.882Z,6.66
2023-01-12T20:08:12.452Z,6.65
2023-01-12T20:10:41.234Z,6.61
2023-01-12T20:13:11.958Z,6.61
2023-01-12T20:15:41.480Z,6.60
2023-01-12T20:18:10.940Z,6.63
2023-01-12T20:20:40.754Z,6.63
2023-01-12T20:23:09.026Z,6.61
2023-01-12T20:25:37.266Z,6.62
2023-01-12T20:28:05.826Z,6.61
2023-01-12T20:30:38.528Z,6.59
2023-01-12T20:33:07.626Z,6.59
2023-01-12T20:35:38.678Z,6.60
2023-01-12T20:38:13.199Z,6.57
2023-01-12T20:40:41.881Z,6.56
2023-01-12T20:43:11.588Z,6.55
2023-01-12T20:45:41.640Z,6.51
2023-01-12T20:48:13.237Z,6.52
2023-01-12T20:50:46.784Z,6.49
2023-01-12T20:53:16.264Z,6.44
2023-01-12T20:55:45.192Z,6.44
2023-01-12T20:58:13.742Z,6.44
2023-01-12T21:00:42.710Z,6.40
2023-01-12T21:03:11.059Z,6.39
2023-01-12T21:05:42.989Z,6.36
2023-01-12T21:08:13.729Z,6.31
2023-01-12T21:10:50.705Z,6.31
2023-01-12T21:13:19.262Z,6.32
2023-01-12T21:15:47.845Z,6.32
2023-01-12T21:18:16.094Z,6.33
2023-01-12T21:20:44.711Z,6.35
2023-01-12T21:23:14.535Z,6.34
2023-01-12T21:25:43.940Z,6.39
2023-01-12T21:28:12.768Z,6.38
2023-01-12T21:30:41.509Z,6.35
2023-01-12T21:33:10.640Z,6.36
2023-01-12T21:35:39.126Z,6.36
2023-01-12T21:38:07.972Z,6.32
2023-01-12T21:40:38.484Z,6.27
2023-01-12T21:43:08.664Z,6.30
2023-01-12T21:45:37.451Z,6.26
2023-01-12T21:48:06.189Z,6.27
2023-01-12T21:50:35.387Z,6.20
2023-01-12T21:53:04.790Z,6.20
2023-01-12T21:55:34.148Z,6.17
2023-01-12T21:58:04.105Z,6.13
2023-01-12T22:00:32.736Z,6.11
2023-01-12T22:03:00.936Z,6.10
2023-01-12T22:05:29.236Z,6.18
2023-01-12T22:07:58.461Z,6.22
2023-01-12T22:10:30.637Z,6.24
2023-01-12T22:13:02.555Z,6.29
2023-01-12T22:15:34.097Z,6.29
2023-01-12T22:18:02.847Z,6.33
2023-01-12T22:20:31.788Z,6.36
2023-01-12T22:23:01.027Z,6.39
2023-01-12T22:25:29.659Z,6.40
2023-01-12T22:27:58.866Z,6.42
2023-01-12T22:30:27.949Z,6.45
2023-01-12T22:32:58.241Z,6.46
2023-01-12T22:35:27.049Z,6.47
2023-01-12T22:37:55.939Z,6.49
2023-01-12T22:40:24.435Z,6.48
2023-01-12T22:43:11.249Z,6.42
2023-01-12T22:45:40.785Z,6.39
2023-01-12T22:48:11.588Z,6.40
2023-01-12T22:50:40.521Z,6.36
2023-01-12T22:53:09.049Z,6.42
2023-01-12T22:55:40.379Z,6.34
2023-01-12T22:58:09.350Z,6.31
2023-01-12T23:00:39.978Z,6.30
2023-01-12T23:03:11.330Z,6.28
2023-01-12T23:05:45.929Z,6.28
2023-01-12T23:08:15.853Z,6.29
2023-01-12T23:10:45.663Z,6.25
2023-01-12T23:13:19.368Z,6.22
2023-01-12T23:15:50.810Z,6.21
2023-01-12T23:18:22.414Z,6.22
2023-01-12T23:20:51.462Z,6.18
2023-01-12T23:23:20.542Z,6.16
2023-01-12T23:25:49.859Z,6.12
2023-01-12T23:28:19.372Z,6.12
2023-01-12T23:30:48.529Z,6.10
2023-01-12T23:33:17.468Z,6.08
2023-01-12T23:35:47.793Z,6.07
2023-01-12T23:38:17.748Z,6.08
2023-01-12T23:40:46.903Z,6.07
2023-01-12T23:43:15.771Z,6.06
2023-01-12T23:45:46.601Z,6.01
2023-01-12T23:48:15.704Z,5.97
2023-01-12T23:50:44.461Z,5.93
2023-01-12T23:53:15.152Z,5.92
2023-01-12T23:55:44.624Z,5.95
2023-01-12T23:58:13.451Z,5.93
